Time;durP1;ratioP1;P1;durP2;ratioP2;P2;SDS_P1;SDS_P2;PMS_P1;PMS_P2;Temp;Humidity;BMP_temperature;BMP_pressure;BME280_temperature;BME280_humidity;BME280_pressure;Samples;Min_cycle;Max_cycle;Signal;HPM_P1;HPM_P2
2022/05/13 00:01:21;;;;;;;9.68;6.45;;;;;;;18.62;52.54;100695.41;5063819;28;20064;-78
2022/05/13 00:03:47;;;;;;;9.32;7.03;;;;;;;18.63;51.91;100670.56;5064885;28;20075;-78
2022/05/13 00:06:13;;;;;;;9.57;6.63;;;;;;;18.52;51.78;100665.56;5060932;28;20134;-78
2022/05/13 00:08:39;;;;;;;12.23;6.38;;;;;;;18.55;51.33;100673.44;5063637;28;20103;-78
2022/05/13 00:11:08;;;;;;;13.23;7.07;;;;;;;18.65;52.41;100708.59;5041078;28;20041;-77
2022/05/13 00:13:34;;;;;;;13.15;7.18;;;;;;;18.37;54.59;100665.13;5044855;28;20101;-77
2022/05/13 00:16:00;;;;;;;9.75;7.03;;;;;;;18.29;56.07;100678.63;5049864;28;20123;-79
2022/05/13 00:18:28;;;;;;;12.82;7.13;;;;;;;18.40;55.61;100716.38;5059171;28;20083;-77
2022/05/13 00:20:54;;;;;;;13.70;6.68;;;;;;;18.10;54.90;100665.00;5054656;28;20032;-77
2022/05/13 00:23:20;;;;;;;13.05;7.75;;;;;;;18.38;52.88;100706.72;5053954;28;20882;-77
2022/05/13 00:26:05;;;;;;;11.95;6.43;;;;;;;18.56;53.63;100707.06;5061111;28;20056;-79
2022/05/13 00:28:31;;;;;;;9.38;6.47;;;;;;;18.29;54.51;100668.88;5067411;28;20545;-78
2022/05/13 00:30:59;;;;;;;9.10;6.13;;;;;;;18.26;55.66;100698.19;5061541;28;20338;-77
2022/05/13 00:33:26;;;;;;;12.00;6.57;;;;;;;17.91;57.36;100661.94;5049380;28;20020;-77
2022/05/13 00:35:52;;;;;;;12.43;8.02;;;;;;;18.14;57.46;100709.13;5062263;28;20047;-77
2022/05/13 00:38:17;;;;;;;11.20;5.65;;;;;;;18.17;57.13;100706.41;5035300;28;20052;-77
2022/05/13 00:40:44;;;;;;;15.65;7.22;;;;;;;17.93;55.83;100671.63;5066134;28;20144;-77
2022/05/13 00:43:13;;;;;;;13.60;6.40;;;;;;;17.83;56.30;100664.78;5048093;28;20041;-79
2022/05/13 00:45:41;;;;;;;13.73;5.78;;;;;;;17.79;57.60;100665.75;5046755;28;20048;-77
2022/05/13 00:48:09;;;;;;;12.73;6.05;;;;;;;17.69;58.15;100667.75;5067345;28;20036;-77
2022/05/13 00:50:40;;;;;;;12.15;7.50;;;;;;;17.60;56.73;100649.41;5065377;28;20040;-76
2022/05/13 00:53:06;;;;;;;10.35;6.95;;;;;;;17.84;57.24;100669.22;5039046;28;20051;-80
2022/05/13 00:55:40;;;;;;;14.50;7.43;;;;;;;17.96;56.44;100701.63;5045981;28;20110;-76
2022/05/13 00:58:10;;;;;;;12.32;7.18;;;;;;;17.59;57.32;100665.41;5061676;28;20049;-77
2022/05/13 01:00:38;;;;;;;11.25;5.82;;;;;;;17.83;57.58;100703.75;5046492;28;20128;-77
2022/05/13 01:03:08;;;;;;;11.32;7.65;;;;;;;17.79;57.06;100702.03;5061378;28;20036;-80
2022/05/13 01:05:35;;;;;;;16.08;6.50;;;;;;;17.41;57.69;100643.69;5031594;28;20040;-77
2022/05/13 01:08:06;;;;;;;11.90;6.10;;;;;;;17.38;56.42;100657.03;5062760;28;20058;-77
2022/05/13 01:10:35;;;;;;;12.18;6.47;;;;;;;17.51;57.52;100662.91;5033878;28;20053;-80
2022/05/13 01:13:07;;;;;;;12.35;6.40;;;;;;;17.80;56.99;100701.16;5027628;28;20055;-78
2022/05/13 01:15:39;;;;;;;10.90;5.72;;;;;;;17.68;57.44;100689.91;5033777;28;20121;-77
2022/05/13 01:18:06;;;;;;;12.63;6.65;;;;;;;17.63;58.52;100643.16;5064440;28;20029;-80
2022/05/13 01:20:35;;;;;;;8.70;6.13;;;;;;;17.70;58.96;100692.53;5045074;28;20052;-78
2022/05/13 01:23:05;;;;;;;11.63;7.07;;;;;;;17.58;55.49;100668.94;5045994;28;20045;-79
2022/05/13 01:25:34;;;;;;;7.85;5.60;;;;;;;17.77;58.20;100707.41;5044904;28;20093;-78
2022/05/13 01:28:13;;;;;;;10.10;5.20;;;;;;;17.39;59.45;100648.16;5065463;28;20047;-78
2022/05/13 01:30:46;;;;;;;12.30;6.68;;;;;;;17.28;58.24;100645.78;5056015;28;20045;-78
2022/05/13 01:33:13;;;;;;;16.83;8.40;;;;;;;17.28;57.89;100652.88;5064686;28;20020;-78
2022/05/13 01:35:41;;;;;;;19.85;7.65;;;;;;;17.54;59.36;100699.13;5062806;28;20474;-78
2022/05/13 01:38:08;;;;;;;9.25;6.20;;;;;;;17.08;59.30;100640.94;5052858;28;20055;-77
2022/05/13 01:40:35;;;;;;;10.80;6.55;;;;;;;17.15;59.02;100648.75;5047085;28;20041;-79
2022/05/13 01:43:02;;;;;;;14.40;7.55;;;;;;;17.29;60.24;100679.34;5054609;28;20110;-78
2022/05/13 01:45:28;;;;;;;18.40;6.68;;;;;;;17.15;59.67;100654.06;5061765;28;20037;-76
2022/05/13 01:47:55;;;;;;;11.93;6.93;;;;;;;17.32;59.85;100677.53;5063191;28;20102;-76
2022/05/13 01:50:23;;;;;;;13.50;7.35;;;;;;;17.12;58.71;100631.16;5042350;28;20155;-77
2022/05/13 01:52:49;;;;;;;11.45;6.35;;;;;;;17.21;58.87;100640.69;5055527;28;20117;-77
2022/05/13 01:55:16;;;;;;;12.07;6.72;;;;;;;17.06;57.78;100637.44;5027318;28;20556;-77
2022/05/13 01:57:41;;;;;;;12.32;7.05;;;;;;;17.32;56.31;100686.34;5040710;28;20048;-79
2022/05/13 02:00:08;;;;;;;11.18;6.50;;;;;;;17.55;54.03;100679.63;5065554;28;20032;-78
2022/05/13 02:03:44;;;;;;;11.98;6.82;;;;;;;17.33;55.46;100637.72;5044233;28;20055;-77
2022/05/13 02:05:22;;;;;;;18.90;6.43;;;;;;;17.38;58.04;100657.03;5044504;28;20040;-76
2022/05/13 02:07:49;;;;;;;10.95;6.10;;;;;;;17.20;58.51;100636.25;5063454;28;20049;-77
2022/05/13 02:10:16;;;;;;;10.90;6.50;;;;;;;17.22;58.20;100643.28;5065187;28;20129;-77
2022/05/13 02:12:42;;;;;;;9.98;5.50;;;;;;;17.05;57.32;100635.72;5043660;28;20124;-76
2022/05/13 02:15:08;;;;;;;12.85;5.65;;;;;;;16.92;57.18;100642.19;5063332;28;20597;-81
2022/05/13 02:17:34;;;;;;;16.40;6.28;;;;;;;16.90;57.97;100637.84;5044496;28;20068;-79
2022/05/13 02:20:03;;;;;;;11.63;6.20;;;;;;;16.95;57.71;100650.09;5063814;28;20087;-77
2022/05/13 02:22:29;;;;;;;9.73;5.78;;;;;;;16.82;58.47;100645.97;5052690;28;20061;-79
2022/05/13 02:24:55;;;;;;;23.52;6.55;;;;;;;16.70;58.43;100644.44;5062204;28;20055;-77
2022/05/13 02:27:22;;;;;;;12.23;4.93;;;;;;;17.00;54.72;100650.88;5064636;28;20036;-77
2022/05/13 02:29:49;;;;;;;9.95;5.85;;;;;;;17.16;54.67;100645.19;5065012;28;20035;-77
2022/05/13 02:32:14;;;;;;;12.43;6.88;;;;;;;17.07;55.17;100656.91;5044012;28;20110;-78
2022/05/13 02:34:41;;;;;;;13.40;6.20;;;;;;;17.17;54.96;100660.22;5044792;28;20032;-78
2022/05/13 02:37:08;;;;;;;8.13;4.80;;;;;;;17.16;54.88;100646.09;5042558;28;20048;-77
2022/05/13 02:39:34;;;;;;;10.85;5.60;;;;;;;17.31;54.05;100650.16;5060027;28;20123;-77
2022/05/13 02:42:00;;;;;;;12.77;5.68;;;;;;;17.32;54.91;100681.06;5067763;28;20092;-77
2022/05/13 02:44:27;;;;;;;15.75;5.10;;;;;;;17.18;55.10;100660.16;5063499;28;20052;-80
2022/05/13 02:46:53;;;;;;;7.53;4.45;;;;;;;17.05;56.21;100635.72;5060579;28;20067;-80
2022/05/13 02:49:22;;;;;;;7.53;4.93;;;;;;;17.00;57.26;100653.50;5025384;28;20060;-78
2022/05/13 02:51:49;;;;;;;12.80;7.00;;;;;;;16.82;59.61;100652.13;5043352;28;20044;-78
2022/05/13 02:54:16;;;;;;;16.75;4.57;;;;;;;16.80;59.45;100651.28;5064275;28;20036;-77
2022/05/13 02:56:44;;;;;;;11.60;5.50;;;;;;;17.04;58.54;100660.50;5048777;28;20075;-77
2022/05/13 02:59:11;;;;;;;8.82;5.55;;;;;;;16.78;58.54;100644.25;5010275;28;20732;-77
2022/05/13 03:01:37;;;;;;;10.38;6.05;;;;;;;16.98;60.01;100692.44;5040803;28;20057;-80
2022/05/13 03:04:06;;;;;;;10.55;6.00;;;;;;;17.03;59.29;100695.84;5038855;28;20059;-78
2022/05/13 03:06:32;;;;;;;16.10;5.40;;;;;;;16.96;60.40;100694.25;5042053;28;20040;-79
2022/05/13 03:08:59;;;;;;;16.40;7.18;;;;;;;16.96;59.87;100670.38;5022775;28;20076;-78
2022/05/13 03:11:26;;;;;;;8.18;5.78;;;;;;;16.87;60.26;100652.03;5032038;28;20048;-78
2022/05/13 03:13:52;;;;;;;11.25;5.50;;;;;;;17.19;60.83;100693.75;5023409;28;20052;-77
2022/05/13 03:16:21;;;;;;;10.73;6.90;;;;;;;17.04;61.59;100702.03;5036004;28;20049;-77
2022/05/13 03:18:55;;;;;;;18.15;6.00;;;;;;;16.68;60.17;100670.09;5042302;28;20048;-77
2022/05/13 03:21:27;;;;;;;9.65;5.43;;;;;;;17.09;62.24;100702.78;5024399;28;20047;-80
2022/05/13 03:23:53;;;;;;;17.07;7.50;;;;;;;16.67;61.89;100663.91;5042987;28;20502;-78
2022/05/13 03:26:20;;;;;;;12.35;7.43;;;;;;;16.86;62.00;100677.69;5041622;28;21180;-77
2022/05/13 03:28:47;;;;;;;16.83;7.18;;;;;;;16.66;63.79;100661.28;5021361;28;20059;-77
2022/05/13 03:31:14;;;;;;;15.27;7.22;;;;;;;16.75;63.81;100662.88;5040204;28;20061;-78
2022/05/13 03:33:42;;;;;;;22.75;6.65;;;;;;;16.55;63.53;100657.97;5024046;28;20041;-77
2022/05/13 03:36:14;;;;;;;10.90;6.32;;;;;;;16.44;62.26;100658.22;5023789;28;20185;-77
2022/05/13 03:38:44;;;;;;;16.85;6.80;;;;;;;16.79;60.56;100694.63;5041638;28;20084;-77
2022/05/13 03:41:10;;;;;;;10.65;6.53;;;;;;;16.81;62.91;100666.31;5016244;28;20048;-77
2022/05/13 03:43:40;;;;;;;16.25;6.68;;;;;;;16.77;62.45;100661.06;5039337;28;20068;-78
2022/05/13 03:46:08;;;;;;;11.88;6.20;;;;;;;16.72;62.45;100665.59;5037903;28;20067;-78
2022/05/13 03:48:34;;;;;;;14.70;7.88;;;;;;;16.95;62.30;100694.28;5042937;28;20049;-77
2022/05/13 03:51:05;;;;;;;14.57;7.18;;;;;;;16.73;64.77;100697.34;5042745;28;20029;-80
2022/05/13 03:53:35;;;;;;;9.35;5.95;;;;;;;16.80;62.96;100720.19;5029692;28;20055;-77
2022/05/13 03:56:14;;;;;;;10.02;5.72;;;;;;;16.81;59.73;100686.63;5028623;28;20120;-80
2022/05/13 03:58:42;;;;;;;19.85;6.18;;;;;;;16.95;57.53;100684.56;5028208;28;20081;-76
2022/05/13 04:01:07;;;;;;;10.80;6.40;;;;;;;16.93;60.07;100678.41;5060262;28;20119;-76
2022/05/13 04:03:33;;;;;;;9.30;5.53;;;;;;;17.15;59.85;100717.72;5048041;28;20104;-77
2022/05/13 04:08:56;;;;;;;12.45;6.47;;;;;;;17.18;61.35;100722.94;5061059;28;20879;-77
2022/05/13 04:11:25;;;;;;;10.68;8.25;;;;;;;16.85;61.90;100683.88;5049040;28;20068;-77
2022/05/13 04:16:36;;;;;;;11.85;6.97;;;;;;;17.01;61.54;100694.16;5051359;28;20055;-77
2022/05/13 04:19:04;;;;;;;22.50;7.03;;;;;;;17.42;58.88;100732.09;5045142;28;20056;-77
2022/05/13 04:21:33;;;;;;;11.57;6.57;;;;;;;17.64;57.92;100746.63;5063056;28;20032;-77
2022/05/13 04:24:03;;;;;;;20.45;8.77;;;;;;;17.51;56.71;100698.31;5056545;28;20040;-77
2022/05/13 04:26:29;;;;;;;15.73;8.20;;;;;;;17.82;56.85;100728.56;5046567;28;20063;-77
2022/05/13 04:28:56;;;;;;;17.63;7.22;;;;;;;17.84;56.61;100719.66;5044204;28;20421;-78
2022/05/13 04:31:35;;;;;;;19.45;7.88;;;;;;;17.79;56.92;100699.38;5046031;28;20151;-76
2022/05/13 04:34:01;;;;;;;18.92;7.38;;;;;;;17.87;58.28;100746.09;5064528;28;20047;-80
2022/05/13 04:36:30;;;;;;;21.17;8.25;;;;;;;17.60;59.19;100693.66;5045125;28;20044;-77
2022/05/13 04:38:56;;;;;;;18.95;8.15;;;;;;;17.70;58.24;100696.06;5066820;28;20506;-77
2022/05/13 04:44:09;;;;;;;18.38;8.85;;;;;;;18.44;56.08;100755.25;5056531;28;20078;-77
2022/05/13 04:46:36;;;;;;;12.40;9.02;;;;;;;18.09;57.27;100700.41;5047091;28;20048;-76
2022/05/13 04:49:03;;;;;;;26.33;9.35;;;;;;;18.45;56.01;100726.88;5050805;28;20081;-78
2022/05/13 04:51:29;;;;;;;11.77;7.57;;;;;;;18.46;55.33;100710.91;5061749;28;20040;-78
2022/05/13 04:53:56;;;;;;;15.80;8.75;;;;;;;18.63;54.65;100730.84;5049651;28;20033;-77
2022/05/13 04:56:25;;;;;;;20.90;8.65;;;;;;;18.67;56.34;100721.88;5048936;28;20052;-77
2022/05/13 04:58:51;;;;;;;15.60;10.15;;;;;;;18.79;54.82;100707.38;5062765;28;20393;-78
2022/05/13 05:01:18;;;;;;;12.70;8.65;;;;;;;19.03;54.10;100735.88;5047810;28;20040;-77
2022/05/13 05:03:45;;;;;;;13.98;8.02;;;;;;;18.79;55.18;100707.38;5049130;28;20065;-78
2022/05/13 05:06:13;;;;;;;12.50;7.80;;;;;;;18.87;54.70;100727.53;5064799;28;20032;-78
2022/05/13 05:08:47;;;;;;;12.30;8.05;;;;;;;18.97;54.82;100730.78;5061767;28;20128;-77
2022/05/13 05:11:18;;;;;;;20.10;8.80;;;;;;;19.38;54.54;100747.25;5065078;28;20063;-78
2022/05/13 05:14:00;;;;;;;20.42;9.30;;;;;;;19.41;54.18;100723.22;5043613;28;20079;-79
2022/05/13 05:16:28;;;;;;;19.75;10.68;;;;;;;19.84;53.58;100727.19;5028180;28;20060;-78
2022/05/13 05:18:54;;;;;;;12.85;7.53;;;;;;;20.08;52.90;100712.16;5063213;28;20497;-78
2022/05/13 05:21:21;;;;;;;13.85;8.48;;;;;;;20.25;53.28;100716.88;5045958;28;20035;-78
2022/05/13 05:23:48;;;;;;;17.92;12.23;;;;;;;20.50;53.15;100729.34;5031198;28;20400;-78
2022/05/13 05:26:14;;;;;;;19.15;12.18;;;;;;;20.83;50.55;100721.94;5043832;28;20141;-78
2022/05/13 05:28:41;;;;;;;23.75;12.52;;;;;;;21.00;50.63;100734.63;5063450;28;20045;-77
2022/05/13 05:31:13;;;;;;;16.77;10.52;;;;;;;21.16;49.85;100719.75;5045202;28;20255;-77
2022/05/13 05:33:42;;;;;;;22.60;12.40;;;;;;;21.67;48.89;100761.38;5037831;28;20044;-77
2022/05/13 05:36:11;;;;;;;18.08;10.05;;;;;;;21.45;48.08;100724.00;5056517;28;20555;-83
2022/05/13 05:38:42;;;;;;;14.38;8.45;;;;;;;21.44;47.29;100746.28;5057279;28;20055;-80
2022/05/13 05:41:09;;;;;;;17.02;9.10;;;;;;;21.88;47.12;100761.44;5040953;28;20056;-80
2022/05/13 05:43:36;;;;;;;27.65;8.90;;;;;;;22.18;47.91;100769.13;5058702;28;20476;-81
2022/05/13 05:46:03;;;;;;;22.92;10.45;;;;;;;22.23;46.76;100764.47;5055535;28;20113;-76
2022/05/13 05:48:29;;;;;;;18.90;10.65;;;;;;;22.22;45.49;100739.53;5058210;28;20479;-77
2022/05/13 05:50:58;;;;;;;18.70;10.57;;;;;;;22.32;45.59;100732.84;5056645;28;20067;-76
2022/05/13 05:59:00;;;;;;;15.20;8.35;;;;;;;22.40;43.78;100689.72;5062915;28;20580;-78
2022/05/13 06:01:27;;;;;;;14.93;8.45;;;;;;;22.58;43.11;100719.28;5042856;28;20075;-76
2022/05/13 06:03:56;;;;;;;24.83;10.48;;;;;;;22.48;43.23;100711.66;5061942;28;20052;-75
2022/05/13 06:06:29;;;;;;;24.85;12.45;;;;;;;22.78;43.13;100713.88;5061515;28;20179;-76
2022/05/13 06:08:57;;;;;;;;;;;;;;;23.13;42.81;100754.22;5046311;28;20491;-76
2022/05/13 06:11:24;;;;;;;24.95;9.80;;;;;;;22.80;42.88;100711.13;5059688;28;19931;-76
2022/05/13 06:13:57;;;;;;;23.52;10.15;;;;;;;22.88;43.90;100714.31;5063654;28;20033;-74
2022/05/13 06:16:25;;;;;;;18.23;11.38;;;;;;;23.10;43.48;100738.31;5043886;28;20504;-75
2022/05/13 06:18:51;;;;;;;19.40;10.88;;;;;;;23.21;43.37;100751.19;5065313;28;20045;-77
2022/05/13 06:21:24;;;;;;;24.73;12.60;;;;;;;23.05;43.61;100708.22;5062024;28;20048;-77
2022/05/13 06:23:50;;;;;;;;;;;;;;;23.39;43.85;100755.69;5032678;28;20047;-75
2022/05/13 06:26:16;;;;;;;17.70;10.05;;;;;;;23.18;44.76;100728.97;5061570;28;20307;-75
2022/05/13 06:28:42;;;;;;;22.08;14.07;;;;;;;23.50;43.70;100756.00;5045551;28;20044;-75
2022/05/13 06:31:09;;;;;;;24.05;12.52;;;;;;;23.24;44.69;100706.38;5064470;28;20067;-75
2022/05/13 06:33:35;;;;;;;20.88;8.77;;;;;;;23.58;43.93;100756.53;5061628;28;20048;-76
2022/05/13 06:36:03;;;;;;;22.35;7.60;;;;;;;23.59;43.26;100750.22;5064807;28;20373;-76
2022/05/13 06:38:30;;;;;;;14.80;7.07;;;;;;;23.50;41.88;100720.31;5062048;28;20044;-76
2022/05/13 06:40:56;;;;;;;12.27;5.70;;;;;;;23.79;42.36;100726.97;5046141;28;20060;-76
2022/05/13 06:43:23;;;;;;;21.13;7.40;;;;;;;23.71;43.50;100708.53;5050435;28;20048;-78
2022/05/13 06:45:56;;;;;;;21.45;6.60;;;;;;;24.09;43.02;100721.88;5061287;28;20068;-76
2022/05/13 06:48:23;;;;;;;23.73;6.97;;;;;;;24.07;42.28;100726.44;5043635;28;20037;-76
2022/05/13 06:50:52;;;;;;;18.80;8.00;;;;;;;23.85;42.61;100715.94;5063696;28;20037;-76
2022/05/13 06:53:19;;;;;;;8.73;5.25;;;;;;;23.95;42.45;100724.38;5043532;28;20135;-76
2022/05/13 06:55:47;;;;;;;16.05;7.57;;;;;;;24.05;43.42;100722.09;5042969;28;20101;-76
2022/05/13 06:58:14;;;;;;;17.75;7.63;;;;;;;24.02;42.41;100728.47;5022850;28;20060;-75
2022/05/13 07:00:43;;;;;;;19.90;7.10;;;;;;;24.02;42.39;100723.09;5042601;28;20041;-75
2022/05/13 07:03:17;;;;;;;17.02;6.75;;;;;;;24.41;42.24;100762.22;5039267;28;20060;-75
2022/05/13 07:05:44;;;;;;;17.73;6.30;;;;;;;24.42;41.51;100769.34;5035759;28;20053;-76
2022/05/13 07:08:11;;;;;;;15.07;6.55;;;;;;;24.45;41.61;100763.81;5036232;28;20052;-82
2022/05/13 07:10:39;;;;;;;12.27;5.82;;;;;;;24.56;42.46;100760.59;5016054;28;20045;-75
2022/05/13 07:13:06;;;;;;;13.60;6.07;;;;;;;24.44;40.93;100771.00;5021124;28;20045;-77
2022/05/13 07:15:33;;;;;;;13.88;7.10;;;;;;;24.43;42.16;100768.38;5018324;28;20503;-75
2022/05/13 07:17:58;;;;;;;15.80;5.68;;;;;;;24.35;40.39;100738.41;5016181;28;20036;-75
2022/05/13 07:20:28;;;;;;;25.88;6.53;;;;;;;24.91;40.30;100771.25;5035669;28;20049;-76
2022/05/13 07:23:00;;;;;;;9.27;5.75;;;;;;;24.87;40.40;100772.41;5017471;28;20048;-76
2022/05/13 07:25:26;;;;;;;12.13;7.22;;;;;;;24.93;40.50;100761.31;5032233;28;20404;-76
2022/05/13 07:27:52;;;;;;;16.02;6.25;;;;;;;24.51;41.24;100768.00;5000564;28;20049;-76
2022/05/13 07:30:19;;;;;;;9.88;5.88;;;;;;;24.24;41.05;100717.53;5034409;28;20165;-76
2022/05/13 07:32:47;;;;;;;9.63;5.60;;;;;;;24.43;40.63;100723.66;5033484;28;20037;-75
2022/05/13 07:35:15;;;;;;;13.57;5.38;;;;;;;24.61;40.51;100759.41;5034149;28;20044;-76
2022/05/13 07:37:43;;;;;;;8.70;5.25;;;;;;;24.74;40.31;100732.78;5033506;28;20112;-74
2022/05/13 07:42:53;;;;;;;14.85;5.10;;;;;;;24.93;40.11;100751.44;5032246;28;20071;-75
2022/05/13 07:45:20;;;;;;;12.20;5.25;;;;;;;24.80;40.03;100715.47;5020004;28;20081;-76
2022/05/13 07:47:45;;;;;;;7.43;4.18;;;;;;;24.99;39.38;100752.94;5038386;28;21255;-74
2022/05/13 07:50:14;;;;;;;10.35;5.22;;;;;;;24.89;39.91;100728.41;5034582;28;20063;-74
2022/05/13 07:52:41;;;;;;;11.07;5.60;;;;;;;25.33;38.71;100743.88;5033483;28;20037;-74
2022/05/13 07:55:12;;;;;;;12.77;5.38;;;;;;;25.31;39.41;100739.53;5033663;28;20067;-74
2022/05/13 07:57:40;;;;;;;9.60;6.07;;;;;;;25.12;39.95;100702.06;5045982;28;20070;-76
2022/05/13 08:00:28;;;;;;;12.70;5.45;;;;;;;25.45;39.50;100743.22;5050231;28;20088;-75
2022/05/13 08:03:03;;;;;;;9.02;5.03;;;;;;;25.62;39.92;100727.94;5053071;28;20068;-73
2022/05/13 08:05:36;;;;;;;9.23;5.35;;;;;;;25.86;37.19;100739.06;5038526;28;20415;-74
2022/05/13 08:08:31;;;;;;;14.18;5.63;;;;;;;25.78;39.55;100725.19;5057617;28;20059;-73
2022/05/13 08:11:00;;;;;;;11.32;5.82;;;;;;;26.30;37.26;100724.84;5052470;28;20060;-74
2022/05/13 08:13:30;;;;;;;10.38;5.20;;;;;;;26.21;38.07;100703.88;5053487;28;20049;-74
2022/05/13 08:15:58;;;;;;;16.23;7.80;;;;;;;26.68;37.45;100722.50;5038598;28;20064;-76
2022/05/13 08:18:24;;;;;;;17.92;5.88;;;;;;;26.91;38.77;100725.56;5055538;28;20548;-74
2022/05/13 08:20:50;;;;;;;12.60;5.47;;;;;;;26.85;38.74;100724.13;5042815;28;20055;-74
2022/05/13 08:23:17;;;;;;;8.80;5.78;;;;;;;26.84;38.22;100732.31;5036239;28;20052;-74
2022/05/13 08:25:46;;;;;;;15.35;4.93;;;;;;;26.81;38.09;100719.91;5055133;28;20040;-74
2022/05/13 08:28:13;;;;;;;18.00;7.65;;;;;;;27.11;37.86;100729.66;5057195;28;20071;-74
2022/05/13 08:30:42;;;;;;;14.25;5.90;;;;;;;27.08;38.64;100693.03;5039132;28;20908;-74
2022/05/13 08:33:08;;;;;;;13.25;5.65;;;;;;;27.14;35.76;100705.25;5053910;28;20036;-74
2022/05/13 08:35:40;;;;;;;8.57;4.75;;;;;;;27.45;36.34;100725.69;5037132;28;20040;-73
2022/05/13 08:38:13;;;;;;;10.98;5.80;;;;;;;27.32;34.46;100724.75;5054482;28;20060;-74
2022/05/13 08:41:07;;;;;;;16.90;5.22;;;;;;;27.25;35.62;100723.44;5038744;28;20147;-75
2022/05/13 08:43:38;;;;;;;9.07;5.38;;;;;;;27.88;35.61;100725.56;5055625;28;20207;-74
2022/05/13 08:46:50;;;;;;;9.93;5.35;;;;;;;28.15;36.97;100690.44;5036819;28;20605;-74
2022/05/13 08:49:34;;;;;;;18.90;6.82;;;;;;;28.14;38.27;100695.94;5022779;28;20108;-74
2022/05/13 08:53:06;;;;;;;11.45;6.22;;;;;;;28.34;36.38;100689.16;5020645;28;20049;-76
2022/05/13 08:54:54;;;;;;;14.18;6.05;;;;;;;28.86;34.57;100712.47;5047972;28;20052;-74
2022/05/13 08:57:37;;;;;;;12.38;6.32;;;;;;;28.60;34.43;100714.34;5045564;28;20455;-74
2022/05/13 09:00:11;;;;;;;9.05;5.50;;;;;;;29.12;34.38;100718.72;5034917;28;20076;-74
2022/05/13 09:02:47;;;;;;;17.95;8.52;;;;;;;29.27;34.02;100707.75;5056645;28;20049;-78
2022/05/13 09:06:11;;;;;;;18.20;9.73;;;;;;;29.40;35.41;100695.94;5038034;28;20048;-86
2022/05/13 09:08:42;;;;;;;19.75;11.18;;;;;;;29.83;33.52;100675.66;4997128;28;20049;-82
2022/05/13 09:11:16;;;;;;;23.45;10.43;;;;;;;29.44;30.95;100670.38;5011037;28;20132;-78
2022/05/13 09:14:09;;;;;;;17.02;10.25;;;;;;;29.41;31.79;100670.63;5050158;28;20036;-79
2022/05/13 09:16:51;;;;;;;29.52;11.07;;;;;;;29.95;34.16;100666.56;5058295;28;20106;-78
2022/05/13 09:19:28;;;;;;;22.50;10.75;;;;;;;30.25;34.63;100666.03;5024260;28;20510;-78
2022/05/13 09:21:54;;;;;;;19.17;11.48;;;;;;;29.49;33.83;100690.81;5056403;28;20059;-79
2022/05/13 09:24:20;;;;;;;34.78;18.00;;;;;;;30.12;34.04;100686.91;5034905;28;20029;-78
2022/05/13 09:26:46;;;;;;;22.55;13.63;;;;;;;28.93;32.18;100692.16;5041786;28;20074;-79
2022/05/13 09:29:14;;;;;;;24.27;13.45;;;;;;;30.11;32.84;100671.66;5056438;28;20045;-82
2022/05/13 09:31:46;;;;;;;28.75;13.68;;;;;;;30.27;30.43;100674.03;5055841;28;20044;-80
2022/05/13 09:34:34;;;;;;;37.28;15.43;;;;;;;30.74;31.18;100652.28;5039844;28;20063;-82
2022/05/13 09:37:18;;;;;;;44.15;20.65;;;;;;;30.57;30.13;100659.91;5034637;28;20060;-77
2022/05/13 09:39:46;;;;;;;37.85;16.17;;;;;;;30.12;30.41;100688.75;5055381;28;20075;-80
2022/05/13 09:42:37;;;;;;;65.28;24.95;;;;;;;30.98;31.96;100663.00;5040362;28;20443;-81
2022/05/13 09:45:27;;;;;;;70.35;29.02;;;;;;;31.22;30.72;100652.00;5056155;28;20496;-78
2022/05/13 09:48:16;;;;;;;87.57;34.38;;;;;;;30.42;30.64;100650.31;5030003;28;20063;-79
2022/05/13 09:50:46;;;;;;;90.80;37.00;;;;;;;30.19;29.81;100650.25;5038919;28;20044;-81
2022/05/13 09:53:20;;;;;;;111.72;42.47;;;;;;;30.92;29.67;100657.09;5032565;28;20052;-79
2022/05/13 09:55:50;;;;;;;112.05;42.60;;;;;;;30.60;29.76;100638.00;5054340;28;20113;-76
2022/05/13 09:58:37;;;;;;;118.00;44.45;;;;;;;30.58;28.88;100660.75;5052525;28;20065;-80
2022/05/13 10:01:09;;;;;;;96.10;37.92;;;;;;;31.30;29.97;100616.94;5044371;28;20060;-77
2022/05/13 10:03:38;;;;;;;173.02;61.65;;;;;;;31.03;28.24;100650.78;5037713;28;20048;-77
2022/05/13 10:06:12;;;;;;;162.27;58.15;;;;;;;31.24;30.39;100644.59;5058780;28;20032;-80
2022/05/13 10:14:44;;;;;;;153.77;54.50;;;;;;;31.20;28.31;100614.16;5061361;28;20056;-75
2022/05/13 10:17:22;;;;;;;90.22;34.30;;;;;;;31.39;28.04;100618.03;5061813;28;20137;-75
2022/05/13 10:19:56;;;;;;;120.38;50.70;;;;;;;31.98;29.22;100617.53;5045719;28;20151;-77
2022/05/13 10:22:26;;;;;;;127.63;49.95;;;;;;;30.39;28.52;100601.81;5047253;28;20041;-77
2022/05/13 10:25:00;;;;;;;109.30;42.00;;;;;;;30.32;28.90;100631.25;5061754;28;20048;-76
2022/05/13 10:28:02;;;;;;;;;;;;;;;;;;;;;
2022/05/13 10:30:31;;;;;;;167.35;52.63;;;;;;;31.80;29.46;100622.69;5053159;28;20259;-83
2022/05/13 10:33:08;;;;;;;101.00;33.50;;;;;;;32.29;28.71;100588.53;5043034;28;20042;-83
2022/05/13 10:36:02;;;;;;;132.13;41.55;;;;;;;32.11;28.07;100590.16;5059598;28;20084;-84
2022/05/13 10:39:17;;;;;;;95.63;33.22;;;;;;;32.04;28.33;100608.00;5012301;28;20163;-83
2022/05/13 10:41:59;;;;;;;155.50;51.63;;;;;;;32.05;29.72;100575.25;5042230;28;20056;-84
2022/05/13 10:44:52;;;;;;;107.95;36.03;;;;;;;30.39;29.76;100597.28;5041524;28;20381;-85
2022/05/13 10:47:33;;;;;;;132.32;43.90;;;;;;;30.90;30.10;100583.16;5061941;28;20048;-84
2022/05/13 10:50:13;;;;;;;107.28;36.17;;;;;;;30.38;28.49;100559.47;5056005;28;20056;-85
2022/05/13 10:53:11;;;;;;;100.75;40.05;;;;;;;31.23;29.41;100556.94;5056847;28;20135;-85
2022/05/13 10:56:02;;;;;;;112.70;42.33;;;;;;;32.15;27.81;100584.34;5058452;28;20068;-84
2022/05/13 10:58:56;;;;;;;101.43;37.10;;;;;;;32.29;27.62;100569.53;5059882;28;20484;-85
2022/05/13 11:02:06;;;;;;;113.22;41.03;;;;;;;32.42;27.53;100546.69;5038785;28;20056;-84
2022/05/13 11:05:01;;;;;;;85.03;29.85;;;;;;;32.52;28.17;100539.47;5061004;28;20045;-85
2022/05/13 11:07:45;;;;;;;67.72;27.50;;;;;;;32.00;27.28;100553.09;5040065;28;20677;-84
2022/05/13 11:10:55;;;;;;;111.72;43.13;;;;;;;31.91;26.82;100541.19;5058827;28;20163;-83
2022/05/13 11:13:43;;;;;;;54.53;20.92;;;;;;;32.27;26.97;100568.81;5040524;28;20036;-79
2022/05/13 11:16:31;;;;;;;135.20;47.45;;;;;;;30.76;27.55;100531.94;5031562;28;20075;-81
2022/05/13 11:19:37;;;;;;;26.13;9.55;;;;;;;30.94;28.90;100518.75;5046945;28;20052;-81
2022/05/13 11:22:27;;;;;;;91.45;37.03;;;;;;;30.04;28.35;100557.59;5055265;28;20052;-83
2022/05/13 11:25:56;;;;;;;112.90;43.22;;;;;;;30.85;27.39;100514.94;5053379;28;20048;-82
2022/05/13 11:28:47;;;;;;;95.80;36.65;;;;;;;31.52;28.70;100513.81;5033606;28;20049;-83
2022/05/13 11:31:31;;;;;;;128.77;44.22;;;;;;;31.15;28.53;100510.66;5031867;28;20057;-82
2022/05/13 11:34:26;;;;;;;107.75;41.03;;;;;;;30.80;27.59;100510.88;5034529;28;20044;-81
2022/05/13 11:37:15;;;;;;;117.55;44.53;;;;;;;30.88;28.57;100498.44;5026556;28;20131;-83
2022/05/13 11:39:49;;;;;;;124.03;45.55;;;;;;;31.40;27.85;100494.97;5033184;28;20171;-83
2022/05/13 11:43:18;;;;;;;100.95;39.20;;;;;;;31.24;28.13;100477.31;5032680;28;20044;-84
2022/05/13 11:45:34;;;;;;;79.60;32.28;;;;;;;31.21;28.44;100487.56;5054359;28;20034;-84
2022/05/13 11:48:37;;;;;;;58.65;23.73;;;;;;;30.70;27.35;100479.13;5036628;28;20036;-80
2022/05/13 11:51:18;;;;;;;90.20;31.65;;;;;;;29.89;28.71;100474.91;4958821;28;20046;-81
2022/05/13 11:53:59;;;;;;;83.45;27.30;;;;;;;29.72;27.97;100465.47;5053743;28;20044;-81
2022/05/13 11:56:32;;;;;;;140.82;38.50;;;;;;;30.12;28.37;100491.16;5037400;28;20041;-83
2022/05/13 11:59:37;;;;;;;149.32;42.35;;;;;;;30.55;28.52;100472.28;5048323;28;20053;-84
2022/05/13 12:02:13;;;;;;;165.77;46.50;;;;;;;30.53;28.69;100500.47;5054793;28;20055;-82
2022/05/13 12:05:17;;;;;;;148.70;50.08;;;;;;;30.40;28.70;100460.88;5051289;28;20055;-82